createdAt,value
2017-10-15T00:00:50.092Z,6.53
2017-10-15T00:03:16.308Z,6.47
2017-10-15T00:05:43.227Z,6.50
2017-10-15T00:08:09.469Z,7.13
2017-10-15T00:10:36.452Z,7.27
2017-10-15T00:13:02.713Z,6.20
2017-10-15T00:18:22.401Z,5.90
2017-10-15T00:20:49.370Z,6.63
2017-10-15T00:23:15.541Z,6.70
2017-10-15T00:25:41.821Z,6.53
2017-10-15T00:28:08.016Z,6.10
2017-10-15T00:30:34.240Z,6.47
2017-10-15T00:33:01.248Z,5.83
2017-10-15T00:35:27.419Z,6.50
2017-10-15T00:37:54.409Z,6.33
2017-10-15T00:40:20.680Z,5.37
2017-10-15T00:42:46.952Z,6.43
2017-10-15T00:45:13.121Z,5.53
2017-10-15T00:47:39.328Z,5.23
2017-10-15T00:50:06.323Z,4.90
2017-10-15T00:52:32.510Z,5.80
2017-10-15T00:54:58.732Z,6.70
2017-10-15T00:57:25.003Z,5.77
2017-10-15T00:59:51.283Z,5.47
2017-10-15T01:02:17.525Z,5.43
2017-10-15T01:04:43.785Z,6.43
2017-10-15T01:07:10.032Z,5.87
2017-10-15T01:09:37.054Z,7.00
2017-10-15T01:12:03.286Z,5.90
2017-10-15T01:14:29.516Z,6.80
2017-10-15T01:16:55.812Z,5.40
2017-10-15T01:19:22.064Z,5.67
2017-10-15T01:21:48.417Z,6.20
2017-10-15T01:24:15.420Z,5.43
2017-10-15T01:26:41.642Z,5.87
2017-10-15T01:29:07.860Z,5.83
2017-10-15T01:31:34.206Z,5.67
2017-10-15T01:34:00.462Z,5.53
2017-10-15T01:36:26.710Z,5.43
2017-10-15T01:38:53.000Z,6.13
2017-10-15T01:41:19.260Z,5.47
2017-10-15T01:43:45.523Z,5.87
2017-10-15T01:46:11.825Z,5.30
2017-10-15T01:48:38.827Z,6.17
2017-10-15T01:51:05.124Z,6.17
2017-10-15T01:53:32.128Z,6.27
2017-10-15T01:55:58.472Z,5.90
2017-10-15T01:58:24.670Z,5.03
2017-10-15T02:00:50.905Z,5.20
2017-10-15T02:03:17.122Z,5.30
2017-10-15T02:05:43.307Z,5.87
2017-10-15T02:08:10.211Z,5.83
2017-10-15T02:10:36.483Z,5.17
2017-10-15T02:13:03.480Z,5.50
2017-10-15T02:15:29.661Z,5.20
2017-10-15T02:17:56.617Z,4.80
2017-10-15T02:20:22.860Z,5.90
2017-10-15T02:22:49.073Z,5.90
2017-10-15T02:25:15.285Z,6.00
2017-10-15T02:27:42.184Z,5.00
2017-10-15T02:30:08.395Z,5.37
2017-10-15T02:32:34.569Z,5.27
2017-10-15T02:35:00.813Z,5.90
2017-10-15T02:37:27.749Z,5.53
2017-10-15T02:39:54.023Z,5.40
2017-10-15T02:42:20.328Z,4.97
2017-10-15T02:44:46.577Z,5.70
2017-10-15T02:47:12.846Z,4.90
2017-10-15T02:49:39.095Z,5.60
2017-10-15T02:52:06.035Z,4.40
2017-10-15T02:54:32.220Z,5.40
2017-10-15T02:56:58.391Z,4.67
2017-10-15T02:59:24.557Z,5.47
2017-10-15T03:01:50.761Z,5.27
2017-10-15T03:04:17.722Z,4.60
2017-10-15T03:06:43.937Z,5.20
2017-10-15T03:09:10.864Z,4.80
2017-10-15T03:11:37.045Z,5.43
2017-10-15T03:14:03.220Z,4.80
2017-10-15T03:16:29.446Z,5.57
2017-10-15T03:18:55.620Z,4.87
2017-10-15T03:21:21.794Z,5.00
2017-10-15T03:23:48.014Z,5.00
2017-10-15T03:26:14.172Z,4.80
2017-10-15T03:28:41.096Z,4.87
2017-10-15T03:31:07.317Z,5.40
2017-10-15T03:33:34.375Z,5.27
2017-10-15T03:36:00.619Z,5.63
2017-10-15T03:38:27.537Z,5.10
2017-10-15T03:40:53.754Z,4.47
2017-10-15T03:43:19.990Z,5.50
2017-10-15T03:45:46.190Z,5.17
2017-10-15T03:48:12.395Z,5.63
2017-10-15T03:50:38.640Z,5.23
2017-10-15T03:53:04.892Z,5.70
2017-10-15T03:55:31.057Z,4.93
2017-10-15T03:57:58.031Z,4.90
2017-10-15T04:00:24.241Z,5.07
2017-10-15T04:02:50.429Z,5.90
2017-10-15T04:05:16.631Z,5.73
2017-10-15T04:07:49.688Z,5.17
2017-10-15T04:10:16.632Z,5.30
2017-10-15T04:12:42.858Z,5.90
2017-10-15T04:15:09.140Z,5.50
2017-10-15T04:17:35.336Z,5.90
2017-10-15T04:20:01.561Z,5.57
2017-10-15T04:22:27.785Z,5.97
2017-10-15T04:24:53.996Z,6.50
2017-10-15T04:27:21.012Z,4.73
2017-10-15T04:29:47.182Z,5.30
2017-10-15T04:32:13.392Z,5.23
2017-10-15T04:34:40.289Z,5.13
2017-10-15T04:37:06.461Z,5.43
2017-10-15T04:39:33.408Z,5.93
2017-10-15T04:42:00.406Z,5.77
2017-10-15T04:44:26.695Z,5.90
2017-10-15T04:46:52.961Z,5.43
2017-10-15T04:49:19.199Z,5.00
2017-10-15T04:51:45.428Z,5.43
2017-10-15T04:54:11.617Z,6.13
2017-10-15T04:56:37.765Z,7.43
2017-10-15T04:59:03.993Z,5.40
2017-10-15T05:01:30.173Z,5.77
2017-10-15T05:03:56.412Z,6.37
2017-10-15T05:06:23.625Z,6.00
2017-10-15T05:08:49.804Z,5.43
2017-10-15T05:11:15.982Z,6.47
2017-10-15T05:13:42.186Z,6.00
2017-10-15T05:16:08.364Z,6.33
2017-10-15T05:18:34.607Z,6.17
2017-10-15T05:21:01.568Z,6.20
2017-10-15T05:23:27.753Z,6.10
2017-10-15T05:25:53.889Z,5.53
2017-10-15T05:28:20.104Z,6.40
2017-10-15T05:30:46.351Z,6.43
2017-10-15T05:33:13.246Z,6.63
2017-10-15T05:35:39.472Z,6.97
2017-10-15T05:38:05.674Z,6.77
2017-10-15T05:40:31.932Z,6.53
2017-10-15T05:42:58.177Z,6.50
2017-10-15T05:45:24.391Z,6.90
2017-10-15T05:47:50.717Z,6.70
2017-10-15T05:50:17.012Z,7.40
2017-10-15T05:52:43.265Z,6.43
2017-10-15T05:55:09.546Z,5.30
2017-10-15T05:57:35.810Z,5.27
2017-10-15T06:00:02.091Z,5.60
2017-10-15T06:02:28.409Z,5.83
2017-10-15T06:04:54.693Z,5.37
2017-10-15T06:07:21.727Z,5.80
2017-10-15T06:09:48.758Z,5.60
2017-10-15T06:12:15.065Z,6.20
2017-10-15T06:14:41.310Z,6.70
2017-10-15T06:17:07.635Z,5.30
2017-10-15T06:19:33.869Z,5.30
2017-10-15T06:22:00.116Z,5.63
2017-10-15T06:24:27.160Z,5.30
2017-10-15T06:26:54.152Z,5.20
2017-10-15T06:29:20.361Z,4.63
2017-10-15T06:31:46.913Z,5.53
2017-10-15T06:34:13.105Z,5.20
2017-10-15T06:36:40.010Z,5.10
2017-10-15T06:39:06.149Z,6.10
2017-10-15T06:41:32.433Z,5.37
2017-10-15T06:43:58.621Z,6.30
2017-10-15T06:46:24.817Z,6.37
2017-10-15T06:48:51.141Z,6.70
2017-10-15T06:51:17.341Z,6.43
2017-10-15T06:53:43.528Z,6.67
2017-10-15T06:56:09.794Z,7.53
2017-10-15T06:58:35.956Z,6.97
2017-10-15T07:01:02.192Z,7.40
2017-10-15T07:03:28.360Z,6.80
2017-10-15T07:05:55.321Z,6.57
2017-10-15T07:08:21.568Z,7.70
2017-10-15T07:10:47.798Z,7.10
2017-10-15T07:13:14.016Z,7.73
2017-10-15T07:15:40.195Z,6.90
2017-10-15T07:18:06.400Z,8.80
2017-10-15T07:20:32.565Z,7.30
2017-10-15T07:22:59.493Z,6.73
2017-10-15T07:25:25.762Z,7.90
2017-10-15T07:27:51.977Z,8.27
2017-10-15T07:30:18.929Z,9.80
2017-10-15T07:32:45.900Z,10.33
2017-10-15T07:35:12.127Z,9.13
2017-10-15T07:37:38.325Z,9.43
2017-10-15T07:40:05.258Z,9.70
2017-10-15T07:42:32.256Z,9.30
2017-10-15T07:44:58.460Z,9.13
2017-10-15T07:47:24.754Z,8.63
2017-10-15T07:49:51.017Z,8.77
2017-10-15T07:52:17.217Z,9.20
2017-10-15T07:54:43.408Z,8.90
2017-10-15T07:57:09.677Z,8.70
2017-10-15T07:59:36.624Z,10.90
2017-10-15T08:02:03.627Z,10.10
2017-10-15T08:04:29.865Z,9.80
2017-10-15T08:06:56.108Z,10.13
2017-10-15T08:09:22.348Z,11.00
2017-10-15T08:11:48.577Z,11.37
2017-10-15T08:14:14.840Z,11.30
2017-10-15T08:16:41.056Z,11.20
2017-10-15T08:19:08.060Z,12.97
2017-10-15T08:21:34.302Z,12.37
2017-10-15T08:24:00.528Z,12.03
2017-10-15T08:26:26.710Z,12.20
2017-10-15T08:28:53.052Z,12.43
2017-10-15T08:31:19.242Z,11.30
2017-10-15T08:33:46.166Z,12.30
2017-10-15T08:36:12.334Z,11.80
2017-10-15T08:38:38.570Z,12.07
2017-10-15T08:41:04.781Z,11.37
2017-10-15T08:43:30.930Z,11.67
2017-10-15T08:45:57.129Z,12.40
2017-10-15T08:48:24.041Z,12.47
2017-10-15T08:50:50.277Z,12.13
2017-10-15T08:53:16.467Z,11.43
2017-10-15T08:55:42.676Z,12.17
2017-10-15T08:58:08.889Z,11.50
2017-10-15T09:00:35.908Z,12.07
2017-10-15T09:03:02.184Z,10.87
2017-10-15T09:05:28.372Z,10.97
2017-10-15T09:07:55.366Z,11.80
2017-10-15T09:10:21.538Z,11.90
2017-10-15T09:12:47.722Z,11.10
2017-10-15T09:15:13.906Z,11.30
2017-10-15T09:17:40.859Z,11.57
2017-10-15T09:20:07.876Z,10.87
2017-10-15T09:22:34.070Z,11.63
2017-10-15T09:25:00.245Z,11.07
2017-10-15T09:27:26.523Z,10.20
2017-10-15T09:29:52.732Z,10.43
2017-10-15T09:32:18.940Z,10.13
2017-10-15T09:34:45.860Z,11.40
2017-10-15T09:37:12.065Z,9.90
2017-10-15T09:39:38.271Z,11.10
2017-10-15T09:42:04.446Z,8.80
2017-10-15T09:44:30.644Z,9.20
2017-10-15T09:46:56.880Z,8.73
2017-10-15T09:49:23.074Z,9.87
2017-10-15T09:51:49.277Z,8.03
2017-10-15T09:54:16.228Z,7.93
2017-10-15T09:56:43.208Z,8.20
2017-10-15T09:59:09.410Z,10.23
2017-10-15T10:01:36.336Z,8.93
2017-10-15T10:04:02.502Z,6.93
2017-10-15T10:06:28.673Z,7.17
2017-10-15T10:08:54.892Z,6.17
2017-10-15T10:11:21.140Z,6.77
2017-10-15T10:13:48.100Z,6.67
2017-10-15T10:16:16.094Z,6.37
2017-10-15T10:18:42.281Z,5.87
2017-10-15T10:21:08.502Z,5.23
2017-10-15T10:23:34.719Z,6.07
2017-10-15T10:26:00.996Z,5.97
2017-10-15T10:28:27.200Z,5.30
2017-10-15T10:30:53.398Z,6.53
2017-10-15T10:33:20.001Z,5.10
2017-10-15T10:35:46.246Z,4.83
2017-10-15T10:38:12.488Z,5.40
2017-10-15T10:40:38.705Z,5.17
2017-10-15T10:43:04.870Z,4.43
2017-10-15T10:45:31.104Z,4.63
2017-10-15T10:47:58.060Z,5.07
2017-10-15T10:50:25.000Z,4.80
2017-10-15T10:52:51.231Z,4.10
2017-10-15T10:55:18.131Z,4.87
2017-10-15T10:57:44.321Z,4.73
2017-10-15T11:00:11.257Z,4.47
2017-10-15T11:02:38.183Z,4.30
2017-10-15T11:05:04.394Z,3.60
2017-10-15T11:07:30.613Z,3.60
2017-10-15T11:09:56.895Z,3.87
2017-10-15T11:12:23.821Z,4.20
2017-10-15T11:14:50.077Z,4.80
2017-10-15T11:17:16.314Z,3.50
2017-10-15T11:19:42.501Z,4.03
2017-10-15T11:22:08.731Z,3.13
2017-10-15T11:24:34.909Z,3.00
2017-10-15T11:27:01.133Z,3.43
2017-10-15T11:29:27.353Z,3.50
2017-10-15T11:31:53.581Z,2.83
2017-10-15T11:34:19.778Z,2.83
2017-10-15T11:36:46.690Z,3.33
2017-10-15T11:39:12.854Z,2.93
2017-10-15T11:41:39.774Z,2.30
2017-10-15T11:44:06.021Z,2.30
2017-10-15T11:46:32.220Z,2.87
2017-10-15T11:48:58.391Z,3.07
2017-10-15T11:51:25.372Z,3.73
2017-10-15T11:53:51.649Z,2.50
2017-10-15T11:56:18.593Z,2.83
2017-10-15T11:58:44.769Z,3.00
2017-10-15T12:01:10.992Z,2.90
2017-10-15T12:03:37.189Z,3.00
2017-10-15T12:06:04.092Z,2.30
2017-10-15T12:08:30.242Z,2.70
2017-10-15T12:10:56.461Z,2.67
2017-10-15T12:13:22.698Z,2.53
2017-10-15T12:15:48.885Z,3.17
2017-10-15T12:18:15.058Z,2.57
2017-10-15T12:20:41.248Z,2.70
2017-10-15T12:23:07.458Z,2.50
2017-10-15T12:25:33.609Z,2.97
2017-10-15T12:27:59.831Z,2.40
2017-10-15T12:30:26.025Z,2.40
2017-10-15T12:32:52.252Z,2.70
2017-10-15T12:35:19.228Z,2.90
2017-10-15T12:37:45.437Z,2.37
2017-10-15T12:40:11.645Z,2.30
2017-10-15T12:42:38.592Z,2.40
2017-10-15T12:45:05.522Z,2.57
2017-10-15T12:47:31.763Z,2.73
2017-10-15T12:49:58.728Z,2.70
2017-10-15T12:52:24.988Z,2.90
2017-10-15T12:54:51.637Z,1.87
2017-10-15T12:57:17.833Z,2.03
2017-10-15T12:59:44.059Z,2.03
2017-10-15T13:02:10.303Z,1.90
2017-10-15T13:04:36.457Z,1.93
2017-10-15T13:07:02.677Z,1.97
2017-10-15T13:09:28.856Z,2.10
2017-10-15T13:11:55.096Z,2.00
2017-10-15T13:14:21.321Z,2.20
2017-10-15T13:16:47.595Z,1.70
2017-10-15T13:19:13.863Z,1.90
2017-10-15T13:21:40.042Z,1.90
2017-10-15T13:24:06.330Z,1.87
2017-10-15T13:26:32.708Z,1.50
2017-10-15T13:28:58.958Z,1.77
2017-10-15T13:31:25.191Z,2.03
2017-10-15T13:33:52.117Z,1.70
2017-10-15T13:36:18.355Z,1.90
2017-10-15T13:38:44.560Z,2.00
2017-10-15T13:41:10.821Z,2.10
2017-10-15T13:43:37.829Z,3.07
2017-10-15T13:46:04.016Z,2.00
2017-10-15T13:48:30.914Z,2.30
2017-10-15T13:50:57.117Z,2.17
2017-10-15T13:53:23.366Z,1.70
2017-10-15T13:55:49.600Z,1.67
2017-10-15T13:58:15.825Z,1.67
2017-10-15T14:00:42.088Z,1.80
2017-10-15T14:03:09.085Z,1.80
2017-10-15T14:05:35.340Z,1.80
2017-10-15T14:08:01.550Z,1.77
2017-10-15T14:10:27.824Z,1.60
2017-10-15T14:12:54.763Z,1.87
2017-10-15T14:15:21.680Z,1.80
2017-10-15T14:17:47.885Z,1.67
2017-10-15T14:20:14.096Z,1.80
2017-10-15T14:22:40.376Z,1.90
2017-10-15T14:25:06.654Z,1.77
2017-10-15T14:27:32.860Z,2.10
2017-10-15T14:29:59.864Z,2.43
2017-10-15T14:32:26.106Z,1.80
2017-10-15T14:34:52.313Z,2.20
2017-10-15T14:37:18.508Z,2.10
2017-10-15T14:39:44.775Z,2.33
2017-10-15T14:42:10.941Z,2.60
2017-10-15T14:44:37.883Z,2.10
2017-10-15T14:47:04.832Z,2.00
2017-10-15T14:49:31.759Z,2.03
2017-10-15T14:51:57.945Z,2.57
2017-10-15T14:54:24.184Z,1.97
2017-10-15T14:56:50.398Z,2.00
2017-10-15T14:59:16.660Z,2.30
2017-10-15T15:01:42.857Z,2.50
2017-10-15T15:04:09.118Z,2.30
2017-10-15T15:06:35.352Z,2.53
2017-10-15T15:09:01.546Z,2.40
2017-10-15T15:11:27.785Z,2.60
2017-10-15T15:13:54.034Z,2.30
2017-10-15T15:16:20.249Z,2.47
2017-10-15T15:18:46.482Z,2.47
2017-10-15T15:21:12.641Z,2.60
2017-10-15T15:23:38.871Z,2.50
2017-10-15T15:26:05.829Z,2.60
2017-10-15T15:28:32.745Z,2.37
2017-10-15T15:30:58.996Z,2.47
2017-10-15T15:33:25.936Z,2.00
2017-10-15T15:35:52.084Z,2.37
2017-10-15T15:38:18.317Z,2.23
2017-10-15T15:40:44.525Z,2.70
2017-10-15T15:43:11.510Z,2.27
2017-10-15T15:45:37.712Z,2.77
2017-10-15T15:48:03.905Z,2.63
2017-10-15T15:50:30.128Z,2.40
2017-10-15T15:52:56.425Z,2.53
2017-10-15T15:55:22.593Z,3.00
2017-10-15T15:57:48.785Z,2.60
2017-10-15T16:00:15.035Z,2.90
2017-10-15T16:02:41.255Z,3.67
2017-10-15T16:05:07.497Z,2.90
2017-10-15T16:07:33.743Z,2.53
2017-10-15T16:09:59.937Z,2.83
2017-10-15T16:12:26.146Z,2.80
2017-10-15T16:14:52.417Z,2.73
2017-10-15T16:17:18.626Z,2.80
2017-10-15T16:19:44.826Z,3.53
2017-10-15T16:22:11.014Z,2.93
2017-10-15T16:24:37.189Z,3.20
2017-10-15T16:27:03.372Z,2.90
2017-10-15T16:29:30.599Z,2.93
2017-10-15T16:31:56.839Z,3.40
2017-10-15T16:34:24.103Z,3.60
2017-10-15T16:36:51.120Z,3.60
2017-10-15T16:39:17.354Z,3.80
2017-10-15T16:41:43.538Z,3.70
2017-10-15T16:44:09.784Z,4.10
2017-10-15T16:46:36.018Z,4.10
2017-10-15T16:49:02.262Z,5.80
2017-10-15T16:51:28.443Z,5.73
2017-10-15T16:53:54.679Z,5.10
2017-10-15T16:56:20.932Z,5.13
2017-10-15T16:58:47.152Z,5.30
2017-10-15T17:01:13.338Z,4.97
2017-10-15T17:03:39.513Z,5.27
2017-10-15T17:06:05.750Z,5.23
2017-10-15T17:08:31.976Z,6.10
2017-10-15T17:10:58.188Z,4.60
2017-10-15T17:13:24.393Z,5.10
2017-10-15T17:15:51.342Z,5.20
2017-10-15T17:18:18.312Z,4.33
2017-10-15T17:20:44.525Z,5.00
2017-10-15T17:23:10.748Z,4.70
2017-10-15T17:25:37.050Z,4.80
2017-10-15T17:28:03.220Z,4.03
2017-10-15T17:30:29.396Z,4.20
2017-10-15T17:32:55.682Z,4.97
2017-10-15T17:35:21.963Z,4.60
2017-10-15T17:37:48.938Z,4.40
2017-10-15T17:40:15.270Z,5.07
2017-10-15T17:42:41.499Z,5.33
2017-10-15T17:45:07.720Z,5.03
2017-10-15T17:47:33.993Z,5.63
2017-10-15T17:50:00.296Z,5.20
2017-10-15T17:52:26.634Z,5.00
2017-10-15T17:54:52.952Z,6.60
2017-10-15T17:57:19.205Z,6.60
2017-10-15T17:59:45.513Z,6.03
2017-10-15T18:02:12.733Z,5.87
2017-10-15T18:04:39.681Z,6.00
2017-10-15T18:07:06.660Z,6.57
2017-10-15T18:09:32.909Z,6.30
2017-10-15T18:11:59.123Z,6.27
2017-10-15T18:14:32.437Z,6.50
2017-10-15T18:16:58.655Z,6.13
2017-10-15T18:19:24.913Z,6.50
2017-10-15T18:21:51.206Z,6.20
2017-10-15T18:24:17.448Z,6.70
2017-10-15T18:26:43.678Z,7.30
2017-10-15T18:29:09.904Z,6.37
2017-10-15T18:31:36.127Z,6.67
2017-10-15T18:34:02.428Z,6.83
2017-10-15T18:36:28.697Z,7.40
2017-10-15T18:38:54.939Z,7.57
2017-10-15T18:41:21.182Z,6.80
2017-10-15T18:43:48.103Z,8.20
2017-10-15T18:46:14.373Z,7.37
2017-10-15T18:48:41.358Z,7.60
2017-10-15T18:51:07.670Z,6.70
2017-10-15T18:53:33.949Z,8.30
2017-10-15T18:56:00.225Z,7.27
2017-10-15T18:58:26.453Z,6.90
2017-10-15T19:00:52.672Z,7.20
2017-10-15T19:03:18.877Z,7.30
2017-10-15T19:05:47.697Z,7.70
2017-10-15T19:08:15.071Z,6.97
2017-10-15T19:10:41.341Z,6.43
2017-10-15T19:13:14.600Z,7.50
2017-10-15T19:15:40.864Z,7.00
2017-10-15T19:18:07.096Z,7.40
2017-10-15T19:20:33.349Z,7.53
2017-10-15T19:23:00.341Z,8.50
2017-10-15T19:25:26.542Z,8.03
2017-10-15T19:27:52.786Z,8.30
2017-10-15T19:30:19.029Z,8.83
2017-10-15T19:32:45.580Z,8.37
2017-10-15T19:35:11.814Z,7.70
2017-10-15T19:37:38.086Z,8.20
2017-10-15T19:40:04.369Z,8.17
2017-10-15T19:42:30.697Z,12.73
2017-10-15T19:44:56.908Z,28.20
2017-10-15T19:47:24.178Z,59.83
2017-10-15T19:49:50.571Z,86.00
2017-10-15T19:52:16.707Z,69.30
2017-10-15T19:54:43.303Z,42.40
2017-10-15T19:57:09.474Z,26.50
2017-10-15T19:59:35.694Z,18.30
2017-10-15T20:02:01.964Z,17.93
2017-10-15T20:04:28.197Z,14.77
2017-10-15T20:06:54.452Z,14.77
2017-10-15T20:09:21.473Z,10.93
2017-10-15T20:11:47.748Z,11.33
2017-10-15T20:14:13.985Z,11.60
2017-10-15T20:16:40.233Z,9.60
2017-10-15T20:19:06.421Z,9.03
2017-10-15T20:21:33.389Z,8.80
2017-10-15T20:23:59.636Z,8.40
2017-10-15T20:26:26.250Z,7.30
2017-10-15T20:28:52.417Z,7.53
2017-10-15T20:31:18.609Z,7.70
2017-10-15T20:33:45.645Z,8.30
2017-10-15T20:36:11.865Z,10.13
2017-10-15T20:38:38.845Z,11.17
2017-10-15T20:41:06.057Z,14.53
2017-10-15T20:43:33.007Z,15.30
2017-10-15T20:45:59.970Z,15.83
2017-10-15T20:48:26.160Z,13.10
2017-10-15T20:50:52.293Z,11.43
2017-10-15T20:53:19.201Z,10.10
2017-10-15T20:55:45.575Z,8.40
2017-10-15T20:58:12.513Z,7.90
2017-10-15T21:00:38.744Z,9.40
2017-10-15T21:03:05.697Z,8.13
2017-10-15T21:05:32.702Z,7.30
2017-10-15T21:07:58.889Z,8.57
2017-10-15T21:10:26.731Z,7.50
2017-10-15T21:12:53.661Z,8.33
2017-10-15T21:15:20.650Z,8.60
2017-10-15T21:17:46.877Z,8.43
2017-10-15T21:20:13.116Z,8.30
2017-10-15T21:22:39.338Z,8.10
2017-10-15T21:25:06.501Z,8.23
2017-10-15T21:27:32.712Z,8.17
2017-10-15T21:29:58.910Z,7.83
2017-10-15T21:32:26.888Z,7.53
2017-10-15T21:34:53.829Z,8.63
2017-10-15T21:37:20.777Z,8.53
2017-10-15T21:39:47.744Z,8.50
2017-10-15T21:42:13.941Z,9.43
2017-10-15T21:44:40.148Z,8.47
2017-10-15T21:47:06.368Z,8.30
2017-10-15T21:49:32.623Z,8.43
2017-10-15T21:51:58.809Z,8.37
2017-10-15T21:54:25.758Z,8.40
2017-10-15T21:56:52.093Z,8.73
2017-10-15T21:59:18.316Z,8.60
2017-10-15T22:01:44.705Z,7.83
2017-10-15T22:04:10.919Z,8.03
2017-10-15T22:06:37.122Z,8.30
2017-10-15T22:09:03.403Z,8.23
2017-10-15T22:11:29.601Z,7.63
2017-10-15T22:13:56.710Z,7.50
2017-10-15T22:16:22.895Z,7.93
2017-10-15T22:18:56.080Z,7.87
2017-10-15T22:21:29.133Z,7.80
2017-10-15T22:23:55.584Z,8.50
2017-10-15T22:26:22.613Z,8.00
2017-10-15T22:28:48.809Z,7.53
2017-10-15T22:31:14.982Z,8.50
2017-10-15T22:33:41.173Z,8.07
2017-10-15T22:36:07.717Z,8.03
2017-10-15T22:38:33.981Z,8.70
2017-10-15T22:41:00.161Z,8.03
2017-10-15T22:43:27.665Z,7.97
2017-10-15T22:45:53.886Z,7.90
2017-10-15T22:48:20.070Z,8.07
2017-10-15T22:50:46.367Z,8.43
2017-10-15T22:53:12.617Z,8.27
2017-10-15T22:55:38.894Z,8.13
2017-10-15T22:58:05.145Z,8.23
2017-10-15T23:00:31.408Z,7.70
2017-10-15T23:02:57.743Z,8.30
2017-10-15T23:05:23.933Z,7.63
2017-10-15T23:07:50.101Z,8.50
2017-10-15T23:10:16.426Z,8.10
2017-10-15T23:12:43.493Z,8.10
2017-10-15T23:15:09.691Z,8.33
2017-10-15T23:17:36.696Z,8.17
2017-10-15T23:20:02.927Z,7.03
2017-10-15T23:22:29.177Z,7.30
2017-10-15T23:24:56.120Z,8.43
2017-10-15T23:27:23.046Z,7.33
2017-10-15T23:29:49.244Z,8.27
2017-10-15T23:32:15.457Z,7.93
2017-10-15T23:34:41.646Z,7.00
2017-10-15T23:37:07.845Z,7.73
2017-10-15T23:39:34.022Z,8.27
2017-10-15T23:42:01.108Z,7.73
2017-10-15T23:44:27.325Z,8.67
2017-10-15T23:46:53.584Z,8.03
2017-10-15T23:49:19.835Z,8.00
2017-10-15T23:51:46.010Z,8.73
2017-10-15T23:54:12.186Z,7.47
2017-10-15T23:56:38.397Z,7.87
2017-10-15T23:59:04.596Z,8.30
